sensor_id;sensor_type;location;lat;lon;timestamp;pressure;altitude;pressure_sealevel;temperature;humidity
64460;BME280;50828;53.756;21.140;2022-12-20T00:04:04;100254.71;;;-1.72;67.08
64460;BME280;50828;53.756;21.140;2022-12-20T00:09:12;100250.15;;;-1.65;67.05
64460;BME280;50828;53.756;21.140;2022-12-20T00:14:20;100237.23;;;-1.61;67.61
64460;BME280;50828;53.756;21.140;2022-12-20T00:19:28;100232.06;;;-1.60;68.26
64460;BME280;50828;53.756;21.140;2022-12-20T00:24:38;100226.49;;;-1.64;68.72
64460;BME280;50828;53.756;21.140;2022-12-20T00:29:46;100219.19;;;-1.68;68.79
64460;BME280;50828;53.756;21.140;2022-12-20T00:34:56;100209.98;;;-1.73;69.14
64460;BME280;50828;53.756;21.140;2022-12-20T00:40:05;100206.13;;;-1.78;69.47
64460;BME280;50828;53.756;21.140;2022-12-20T00:45:13;100205.59;;;-1.79;69.52
64460;BME280;50828;53.756;21.140;2022-12-20T00:50:22;100199.90;;;-1.79;69.51
64460;BME280;50828;53.756;21.140;2022-12-20T00:55:32;100192.84;;;-1.77;69.58
64460;BME280;50828;53.756;21.140;2022-12-20T01:00:40;100186.31;;;-1.75;69.62
64460;BME280;50828;53.756;21.140;2022-12-20T01:05:56;100191.55;;;-1.69;69.89
64460;BME280;50828;53.756;21.140;2022-12-20T01:11:06;100184.34;;;-1.65;69.96
64460;BME280;50828;53.756;21.140;2022-12-20T01:16:17;100167.47;;;-1.60;70.06
64460;BME280;50828;53.756;21.140;2022-12-20T01:21:27;100160.11;;;-1.53;70.17
64460;BME280;50828;53.756;21.140;2022-12-20T01:26:35;100144.98;;;-1.45;70.21
64460;BME280;50828;53.756;21.140;2022-12-20T01:31:44;100141.25;;;-1.36;70.11
64460;BME280;50828;53.756;21.140;2022-12-20T01:36:53;100133.90;;;-1.28;70.37
64460;BME280;50828;53.756;21.140;2022-12-20T01:42:02;100126.38;;;-1.18;70.41
64460;BME280;50828;53.756;21.140;2022-12-20T01:47:11;100126.27;;;-1.08;70.68
64460;BME280;50828;53.756;21.140;2022-12-20T01:52:23;100128.77;;;-0.98;70.67
64460;BME280;50828;53.756;21.140;2022-12-20T01:57:37;100117.44;;;-0.87;71.03
64460;BME280;50828;53.756;21.140;2022-12-20T02:02:49;100106.77;;;-0.76;71.42
64460;BME280;50828;53.756;21.140;2022-12-20T02:07:58;100106.33;;;-0.63;71.34
64460;BME280;50828;53.756;21.140;2022-12-20T02:13:13;100098.76;;;-0.54;71.53
64460;BME280;50828;53.756;21.140;2022-12-20T02:18:31;100102.95;;;-0.45;71.61
64460;BME280;50828;53.756;21.140;2022-12-20T02:29:36;100093.16;;;-0.25;71.87
64460;BME280;50828;53.756;21.140;2022-12-20T02:34:45;100081.95;;;-0.17;71.73
64460;BME280;50828;53.756;21.140;2022-12-20T02:39:53;100078.85;;;-0.08;71.81
64460;BME280;50828;53.756;21.140;2022-12-20T02:45:04;100066.94;;;0.00;71.83
64460;BME280;50828;53.756;21.140;2022-12-20T02:50:29;100060.19;;;0.08;72.16
64460;BME280;50828;53.756;21.140;2022-12-20T02:55:44;100052.21;;;0.18;72.15
64460;BME280;50828;53.756;21.140;2022-12-20T03:00:56;100050.33;;;0.25;72.30
64460;BME280;50828;53.756;21.140;2022-12-20T03:06:10;100047.39;;;0.32;72.38
64460;BME280;50828;53.756;21.140;2022-12-20T03:11:18;100054.67;;;0.41;72.22
64460;BME280;50828;53.756;21.140;2022-12-20T03:16:27;100042.89;;;0.48;72.34
64460;BME280;50828;53.756;21.140;2022-12-20T03:21:36;100026.06;;;0.58;72.38
64460;BME280;50828;53.756;21.140;2022-12-20T03:26:44;100004.23;;;0.56;72.20
64460;BME280;50828;53.756;21.140;2022-12-20T03:31:55;100025.01;;;0.75;72.35
64460;BME280;50828;53.756;21.140;2022-12-20T03:37:05;100016.85;;;0.84;72.56
64460;BME280;50828;53.756;21.140;2022-12-20T03:42:13;100010.58;;;0.92;72.63
64460;BME280;50828;53.756;21.140;2022-12-20T03:47:22;100006.05;;;1.01;72.77
64460;BME280;50828;53.756;21.140;2022-12-20T03:52:30;100005.52;;;1.08;72.58
64460;BME280;50828;53.756;21.140;2022-12-20T03:57:40;100003.22;;;1.17;72.59
64460;BME280;50828;53.756;21.140;2022-12-20T04:03:10;99988.28;;;1.24;72.75
64460;BME280;50828;53.756;21.140;2022-12-20T04:08:19;99979.73;;;1.30;72.54
64460;BME280;50828;53.756;21.140;2022-12-20T04:13:28;99986.66;;;1.37;72.53
64460;BME280;50828;53.756;21.140;2022-12-20T04:18:38;99994.27;;;1.43;72.69
64460;BME280;50828;53.756;21.140;2022-12-20T04:23:47;99990.94;;;1.50;72.60
64460;BME280;50828;53.756;21.140;2022-12-20T04:28:55;99985.86;;;1.55;72.74
64460;BME280;50828;53.756;21.140;2022-12-20T04:34:04;99983.94;;;1.60;72.51
64460;BME280;50828;53.756;21.140;2022-12-20T04:39:13;99977.33;;;1.63;72.60
64460;BME280;50828;53.756;21.140;2022-12-20T04:44:37;99984.77;;;1.67;72.63
64460;BME280;50828;53.756;21.140;2022-12-20T04:49:47;99969.30;;;1.71;72.73
64460;BME280;50828;53.756;21.140;2022-12-20T04:54:56;99957.98;;;1.75;72.98
64460;BME280;50828;53.756;21.140;2022-12-20T05:00:11;99955.53;;;1.78;72.89
64460;BME280;50828;53.756;21.140;2022-12-20T05:05:23;99976.36;;;1.77;72.99
64460;BME280;50828;53.756;21.140;2022-12-20T05:10:32;99968.59;;;1.72;73.01
64460;BME280;50828;53.756;21.140;2022-12-20T05:15:42;99962.71;;;1.68;73.10
64460;BME280;50828;53.756;21.140;2022-12-20T05:20:53;99971.41;;;1.63;73.10
64460;BME280;50828;53.756;21.140;2022-12-20T05:26:23;99968.65;;;1.61;73.30
64460;BME280;50828;53.756;21.140;2022-12-20T05:31:33;99961.73;;;1.59;73.33
64460;BME280;50828;53.756;21.140;2022-12-20T05:36:42;99954.09;;;1.57;73.60
64460;BME280;50828;53.756;21.140;2022-12-20T05:41:50;99945.06;;;1.58;73.50
64460;BME280;50828;53.756;21.140;2022-12-20T05:47:01;99947.66;;;1.58;73.56
64460;BME280;50828;53.756;21.140;2022-12-20T05:52:11;99949.05;;;1.58;73.56
64460;BME280;50828;53.756;21.140;2022-12-20T05:57:20;99952.70;;;1.59;73.83
64460;BME280;50828;53.756;21.140;2022-12-20T06:02:28;99952.70;;;1.60;73.86
64460;BME280;50828;53.756;21.140;2022-12-20T06:07:41;99963.98;;;1.61;73.87
64460;BME280;50828;53.756;21.140;2022-12-20T06:12:51;99971.42;;;1.61;73.78
64460;BME280;50828;53.756;21.140;2022-12-20T06:18:03;99970.91;;;1.62;73.91
64460;BME280;50828;53.756;21.140;2022-12-20T06:23:11;99973.49;;;1.63;73.86
64460;BME280;50828;53.756;21.140;2022-12-20T06:28:27;99973.14;;;1.63;73.81
64460;BME280;50828;53.756;21.140;2022-12-20T06:33:36;99966.55;;;1.64;74.05
64460;BME280;50828;53.756;21.140;2022-12-20T06:38:44;99958.20;;;1.66;74.10
64460;BME280;50828;53.756;21.140;2022-12-20T06:43:53;99961.33;;;1.67;74.19
64460;BME280;50828;53.756;21.140;2022-12-20T06:49:02;99971.04;;;1.68;74.20
64460;BME280;50828;53.756;21.140;2022-12-20T06:54:11;99983.55;;;1.70;74.25
64460;BME280;50828;53.756;21.140;2022-12-20T06:59:19;99990.83;;;1.71;74.15
64460;BME280;50828;53.756;21.140;2022-12-20T07:04:27;99990.30;;;1.71;74.41
64460;BME280;50828;53.756;21.140;2022-12-20T07:09:35;99991.70;;;1.72;74.41
64460;BME280;50828;53.756;21.140;2022-12-20T07:14:47;99987.52;;;1.70;74.38
64460;BME280;50828;53.756;21.140;2022-12-20T07:19:57;99995.48;;;1.74;74.45
64460;BME280;50828;53.756;21.140;2022-12-20T07:25:06;99988.89;;;1.74;74.62
64460;BME280;50828;53.756;21.140;2022-12-20T07:30:15;99993.22;;;1.77;74.49
64460;BME280;50828;53.756;21.140;2022-12-20T07:35:23;99982.45;;;1.78;74.53
64460;BME280;50828;53.756;21.140;2022-12-20T07:40:32;99981.39;;;1.80;74.59
64460;BME280;50828;53.756;21.140;2022-12-20T07:45:42;99972.16;;;1.83;74.47
64460;BME280;50828;53.756;21.140;2022-12-20T07:50:52;99972.33;;;1.83;74.57
64460;BME280;50828;53.756;21.140;2022-12-20T07:56:05;99974.06;;;1.85;74.60
64460;BME280;50828;53.756;21.140;2022-12-20T08:01:16;99985.34;;;1.87;74.61
64460;BME280;50828;53.756;21.140;2022-12-20T08:06:25;99999.39;;;1.88;74.62
64460;BME280;50828;53.756;21.140;2022-12-20T08:11:34;99995.90;;;1.91;74.69
64460;BME280;50828;53.756;21.140;2022-12-20T08:16:44;99987.21;;;1.91;74.70
64460;BME280;50828;53.756;21.140;2022-12-20T08:21:53;99999.34;;;1.95;74.76
64460;BME280;50828;53.756;21.140;2022-12-20T08:27:01;99984.41;;;1.95;74.68
64460;BME280;50828;53.756;21.140;2022-12-20T08:32:09;99981.43;;;1.99;74.60
64460;BME280;50828;53.756;21.140;2022-12-20T08:37:19;99989.40;;;2.01;74.65
64460;BME280;50828;53.756;21.140;2022-12-20T08:42:27;99993.40;;;2.02;74.74
64460;BME280;50828;53.756;21.140;2022-12-20T08:47:35;99991.81;;;2.06;74.73
64460;BME280;50828;53.756;21.140;2022-12-20T08:52:44;99984.33;;;2.09;74.72
64460;BME280;50828;53.756;21.140;2022-12-20T08:57:52;99987.09;;;2.10;74.69
64460;BME280;50828;53.756;21.140;2022-12-20T09:02:59;99993.32;;;2.13;74.74
64460;BME280;50828;53.756;21.140;2022-12-20T09:08:07;99985.31;;;2.14;74.64
64460;BME280;50828;53.756;21.140;2022-12-20T09:13:15;99984.06;;;2.18;74.62
64460;BME280;50828;53.756;21.140;2022-12-20T09:18:24;99979.54;;;2.18;74.73
64460;BME280;50828;53.756;21.140;2022-12-20T09:23:33;99974.14;;;2.20;74.84
64460;BME280;50828;53.756;21.140;2022-12-20T09:28:42;99971.19;;;2.21;74.68
64460;BME280;50828;53.756;21.140;2022-12-20T09:33:52;99972.52;;;2.26;74.74
64460;BME280;50828;53.756;21.140;2022-12-20T09:39:00;99966.08;;;2.28;74.81
64460;BME280;50828;53.756;21.140;2022-12-20T09:44:15;99971.42;;;2.31;74.82
64460;BME280;50828;53.756;21.140;2022-12-20T09:49:29;99961.85;;;2.35;74.71
64460;BME280;50828;53.756;21.140;2022-12-20T09:54:45;99970.85;;;2.39;74.88
64460;BME280;50828;53.756;21.140;2022-12-20T09:59:58;99965.27;;;2.42;74.78
64460;BME280;50828;53.756;21.140;2022-12-20T10:05:14;99958.27;;;2.47;74.70
64460;BME280;50828;53.756;21.140;2022-12-20T10:10:40;99945.89;;;2.50;74.76
64460;BME280;50828;53.756;21.140;2022-12-20T10:15:56;99947.10;;;2.52;74.64
64460;BME280;50828;53.756;21.140;2022-12-20T10:21:04;99939.08;;;2.53;74.61
64460;BME280;50828;53.756;21.140;2022-12-20T10:26:15;99949.17;;;2.53;74.69
64460;BME280;50828;53.756;21.140;2022-12-20T10:31:23;99958.38;;;2.53;74.54
64460;BME280;50828;53.756;21.140;2022-12-20T10:36:33;99960.64;;;2.52;74.59
64460;BME280;50828;53.756;21.140;2022-12-20T10:41:49;99968.45;;;2.54;74.68
64460;BME280;50828;53.756;21.140;2022-12-20T10:46:58;99965.66;;;2.55;74.63
64460;BME280;50828;53.756;21.140;2022-12-20T10:52:13;99957.10;;;2.59;74.59
64460;BME280;50828;53.756;21.140;2022-12-20T10:57:24;99950.14;;;2.59;74.69
64460;BME280;50828;53.756;21.140;2022-12-20T11:02:35;99939.51;;;2.63;74.77
64460;BME280;50828;53.756;21.140;2022-12-20T11:07:55;99917.33;;;2.56;74.71
64460;BME280;50828;53.756;21.140;2022-12-20T11:13:27;99928.64;;;2.70;74.88
64460;BME280;50828;53.756;21.140;2022-12-20T11:18:42;99913.97;;;2.76;74.88
64460;BME280;50828;53.756;21.140;2022-12-20T11:24:04;99909.91;;;2.82;75.01
64460;BME280;50828;53.756;21.140;2022-12-20T11:29:27;99913.34;;;2.85;74.85
64460;BME280;50828;53.756;21.140;2022-12-20T11:34:49;99908.77;;;2.89;74.91
64460;BME280;50828;53.756;21.140;2022-12-20T11:40:10;99913.95;;;2.91;74.78
64460;BME280;50828;53.756;21.140;2022-12-20T11:45:30;99923.67;;;2.93;74.76
64460;BME280;50828;53.756;21.140;2022-12-20T11:50:53;99919.86;;;2.92;74.64
64460;BME280;50828;53.756;21.140;2022-12-20T11:56:09;99917.59;;;2.93;74.65
64460;BME280;50828;53.756;21.140;2022-12-20T12:01:20;99919.48;;;2.94;74.61
64460;BME280;50828;53.756;21.140;2022-12-20T12:06:32;99918.27;;;2.95;74.66
64460;BME280;50828;53.756;21.140;2022-12-20T12:11:44;99916.00;;;2.95;74.66
64460;BME280;50828;53.756;21.140;2022-12-20T12:17:16;99905.19;;;2.97;74.60
64460;BME280;50828;53.756;21.140;2022-12-20T12:22:29;99903.08;;;3.00;74.67
64460;BME280;50828;53.756;21.140;2022-12-20T12:27:39;99912.80;;;3.01;74.64
64460;BME280;50828;53.756;21.140;2022-12-20T12:32:52;99916.79;;;3.02;74.59
64460;BME280;50828;53.756;21.140;2022-12-20T12:38:19;99911.89;;;3.04;74.45
64460;BME280;50828;53.756;21.140;2022-12-20T12:43:50;99912.76;;;3.04;74.53
64460;BME280;50828;53.756;21.140;2022-12-20T12:49:03;99915.36;;;3.05;74.46
64460;BME280;50828;53.756;21.140;2022-12-20T12:54:21;99910.30;;;3.06;74.44
64460;BME280;50828;53.756;21.140;2022-12-20T12:59:46;99913.78;;;3.06;74.34
64460;BME280;50828;53.756;21.140;2022-12-20T13:04:56;99907.30;;;3.09;74.46
64460;BME280;50828;53.756;21.140;2022-12-20T13:16:11;99897.74;;;3.08;74.28
64460;BME280;50828;53.756;21.140;2022-12-20T13:21:42;99911.61;;;3.12;74.08
64460;BME280;50828;53.756;21.140;2022-12-20T13:26:53;99912.14;;;3.12;74.17
64460;BME280;50828;53.756;21.140;2022-12-20T13:32:01;99920.81;;;3.15;74.13
64460;BME280;50828;53.756;21.140;2022-12-20T13:37:26;99918.38;;;3.15;73.98
64460;BME280;50828;53.756;21.140;2022-12-20T13:42:39;99913.69;;;3.13;73.98
64460;BME280;50828;53.756;21.140;2022-12-20T13:47:51;99915.77;;;3.13;73.89
64460;BME280;50828;53.756;21.140;2022-12-20T13:53:00;99921.18;;;3.13;73.91
64460;BME280;50828;53.756;21.140;2022-12-20T13:58:17;99922.75;;;3.12;73.80
64460;BME280;50828;53.756;21.140;2022-12-20T14:03:28;99914.76;;;3.11;73.74
64460;BME280;50828;53.756;21.140;2022-12-20T14:08:41;99926.77;;;3.10;73.63
64460;BME280;50828;53.756;21.140;2022-12-20T14:13:55;99925.94;;;3.08;73.63
64460;BME280;50828;53.756;21.140;2022-12-20T14:19:04;99918.83;;;3.07;73.59
64460;BME280;50828;53.756;21.140;2022-12-20T14:24:15;99909.08;;;3.06;73.82
64460;BME280;50828;53.756;21.140;2022-12-20T14:29:29;99903.88;;;3.04;73.63
64460;BME280;50828;53.756;21.140;2022-12-20T14:34:38;99892.61;;;3.02;73.64
64460;BME280;50828;53.756;21.140;2022-12-20T14:39:57;99887.23;;;3.01;73.50
64460;BME280;50828;53.756;21.140;2022-12-20T14:45:19;99875.04;;;3.02;73.67
64460;BME280;50828;53.756;21.140;2022-12-20T14:50:31;99887.75;;;3.01;73.56
64460;BME280;50828;53.756;21.140;2022-12-20T14:55:43;99889.86;;;3.00;73.42
64460;BME280;50828;53.756;21.140;2022-12-20T15:00:59;99890.05;;;2.99;73.49
64460;BME280;50828;53.756;21.140;2022-12-20T15:06:36;99886.23;;;2.98;73.37
64460;BME280;50828;53.756;21.140;2022-12-20T15:11:46;99892.66;;;2.99;73.62
64460;BME280;50828;53.756;21.140;2022-12-20T15:16:56;99889.49;;;3.01;73.32
64460;BME280;50828;53.756;21.140;2022-12-20T15:22:04;99883.56;;;3.01;73.51
64460;BME280;50828;53.756;21.140;2022-12-20T15:27:14;99874.69;;;3.03;73.43
64460;BME280;50828;53.756;21.140;2022-12-20T15:32:25;99873.09;;;3.04;73.26
64460;BME280;50828;53.756;21.140;2022-12-20T15:37:34;99876.73;;;3.06;73.45
64460;BME280;50828;53.756;21.140;2022-12-20T15:42:43;99869.07;;;3.06;73.21
64460;BME280;50828;53.756;21.140;2022-12-20T15:47:50;99871.13;;;3.08;73.49
64460;BME280;50828;53.756;21.140;2022-12-20T15:52:59;99862.23;;;3.09;73.43
64460;BME280;50828;53.756;21.140;2022-12-20T15:58:07;99855.61;;;3.10;73.32
64460;BME280;50828;53.756;21.140;2022-12-20T16:03:19;99844.48;;;3.09;73.44
64460;BME280;50828;53.756;21.140;2022-12-20T16:08:27;99838.88;;;3.12;73.40
64460;BME280;50828;53.756;21.140;2022-12-20T16:13:35;99840.44;;;3.13;73.06
64460;BME280;50828;53.756;21.140;2022-12-20T16:18:43;99847.73;;;3.14;73.04
64460;BME280;50828;53.756;21.140;2022-12-20T16:23:52;99855.74;;;3.14;73.08
64460;BME280;50828;53.756;21.140;2022-12-20T16:29:00;99857.30;;;3.14;72.95
64460;BME280;50828;53.756;21.140;2022-12-20T16:34:11;99868.08;;;3.15;73.20
64460;BME280;50828;53.756;21.140;2022-12-20T16:39:19;99872.60;;;3.15;73.15
64460;BME280;50828;53.756;21.140;2022-12-20T16:44:28;99872.98;;;3.13;73.05
64460;BME280;50828;53.756;21.140;2022-12-20T16:49:36;99868.27;;;3.13;72.81
64460;BME280;50828;53.756;21.140;2022-12-20T16:54:46;99862.55;;;3.13;72.72
64460;BME280;50828;53.756;21.140;2022-12-20T16:59:54;99866.02;;;3.12;72.82
64460;BME280;50828;53.756;21.140;2022-12-20T17:05:02;99864.98;;;3.11;72.77
64460;BME280;50828;53.756;21.140;2022-12-20T17:10:11;99856.08;;;3.01;72.80
64460;BME280;50828;53.756;21.140;2022-12-20T17:15:24;99856.16;;;3.08;72.64
64460;BME280;50828;53.756;21.140;2022-12-20T17:20:32;99857.23;;;3.06;72.68
64460;BME280;50828;53.756;21.140;2022-12-20T17:25:41;99856.71;;;3.06;72.70
64460;BME280;50828;53.756;21.140;2022-12-20T17:30:59;99846.67;;;3.03;72.77
64460;BME280;50828;53.756;21.140;2022-12-20T17:36:13;99843.16;;;3.04;72.77
64460;BME280;50828;53.756;21.140;2022-12-20T17:41:25;99851.86;;;3.04;72.83
64460;BME280;50828;53.756;21.140;2022-12-20T17:46:33;99850.66;;;3.03;72.70
64460;BME280;50828;53.756;21.140;2022-12-20T17:51:42;99848.26;;;3.01;72.81
64460;BME280;50828;53.756;21.140;2022-12-20T17:56:51;99853.08;;;3.04;72.86
64460;BME280;50828;53.756;21.140;2022-12-20T18:01:59;99849.42;;;3.04;72.62
64460;BME280;50828;53.756;21.140;2022-12-20T18:07:08;99850.83;;;3.04;72.93
64460;BME280;50828;53.756;21.140;2022-12-20T18:12:16;99850.33;;;3.04;72.72
64460;BME280;50828;53.756;21.140;2022-12-20T18:17:23;99844.94;;;3.02;72.94
64460;BME280;50828;53.756;21.140;2022-12-20T18:22:33;99854.00;;;3.01;72.65
64460;BME280;50828;53.756;21.140;2022-12-20T18:27:42;99849.66;;;3.00;72.71
64460;BME280;50828;53.756;21.140;2022-12-20T18:32:49;99843.80;;;2.97;72.78
64460;BME280;50828;53.756;21.140;2022-12-20T18:37:57;99836.65;;;2.97;73.05
64460;BME280;50828;53.756;21.140;2022-12-20T18:43:04;99833.54;;;2.96;73.00
64460;BME280;50828;53.756;21.140;2022-12-20T18:48:12;99837.90;;;2.94;72.93
64460;BME280;50828;53.756;21.140;2022-12-20T18:53:20;99831.67;;;2.93;73.16
64460;BME280;50828;53.756;21.140;2022-12-20T18:58:27;99814.98;;;2.92;73.08
64460;BME280;50828;53.756;21.140;2022-12-20T19:03:35;99805.41;;;2.92;73.20
64460;BME280;50828;53.756;21.140;2022-12-20T19:08:43;99827.16;;;2.91;72.98
64460;BME280;50828;53.756;21.140;2022-12-20T19:13:51;99817.60;;;2.90;72.95
64460;BME280;50828;53.756;21.140;2022-12-20T19:19:00;99802.33;;;2.89;72.85
64460;BME280;50828;53.756;21.140;2022-12-20T19:24:09;99805.30;;;2.88;73.00
64460;BME280;50828;53.756;21.140;2022-12-20T19:29:17;99809.09;;;2.89;72.97
64460;BME280;50828;53.756;21.140;2022-12-20T19:34:25;99800.38;;;2.91;73.26
64460;BME280;50828;53.756;21.140;2022-12-20T19:39:32;99801.25;;;2.91;72.90
64460;BME280;50828;53.756;21.140;2022-12-20T19:44:40;99800.70;;;2.94;73.22
64460;BME280;50828;53.756;21.140;2022-12-20T19:49:48;99801.17;;;2.95;72.94
64460;BME280;50828;53.756;21.140;2022-12-20T19:55:03;99806.21;;;2.97;72.90
64460;BME280;50828;53.756;21.140;2022-12-20T20:00:12;99802.59;;;2.95;73.07
64460;BME280;50828;53.756;21.140;2022-12-20T20:05:21;99801.21;;;2.93;72.99
64460;BME280;50828;53.756;21.140;2022-12-20T20:10:28;99794.23;;;2.95;72.91
64460;BME280;50828;53.756;21.140;2022-12-20T20:15:36;99787.80;;;2.95;72.97
64460;BME280;50828;53.756;21.140;2022-12-20T20:20:44;99786.59;;;2.94;73.05
64460;BME280;50828;53.756;21.140;2022-12-20T20:25:53;99771.80;;;2.95;72.82
64460;BME280;50828;53.756;21.140;2022-12-20T20:31:02;99773.89;;;2.94;72.87
64460;BME280;50828;53.756;21.140;2022-12-20T20:36:13;99772.13;;;2.96;72.67
64460;BME280;50828;53.756;21.140;2022-12-20T20:41:21;99769.00;;;2.95;72.79
64460;BME280;50828;53.756;21.140;2022-12-20T20:46:29;99769.52;;;2.96;72.74
64460;BME280;50828;53.756;21.140;2022-12-20T20:51:37;99759.95;;;2.96;72.77
64460;BME280;50828;53.756;21.140;2022-12-20T20:56:45;99742.00;;;2.86;72.57
64460;BME280;50828;53.756;21.140;2022-12-20T21:01:52;99750.86;;;2.99;72.83
64460;BME280;50828;53.756;21.140;2022-12-20T21:07:00;99754.18;;;2.98;72.47
64460;BME280;50828;53.756;21.140;2022-12-20T21:12:08;99763.90;;;3.00;72.47
64460;BME280;50828;53.756;21.140;2022-12-20T21:17:16;99772.08;;;2.99;72.65
64460;BME280;50828;53.756;21.140;2022-12-20T21:22:24;99764.23;;;3.01;72.70
64460;BME280;50828;53.756;21.140;2022-12-20T21:27:32;99758.98;;;3.03;72.80
64460;BME280;50828;53.756;21.140;2022-12-20T21:32:40;99740.67;;;3.05;72.43
64460;BME280;50828;53.756;21.140;2022-12-20T21:37:48;99732.13;;;3.07;72.48
64460;BME280;50828;53.756;21.140;2022-12-20T21:42:56;99755.95;;;3.08;72.54
64460;BME280;50828;53.756;21.140;2022-12-20T21:48:04;99738.71;;;3.09;72.38
64460;BME280;50828;53.756;21.140;2022-12-20T21:53:11;99735.73;;;3.09;72.47
64460;BME280;50828;53.756;21.140;2022-12-20T21:58:22;99740.23;;;3.11;72.44
64460;BME280;50828;53.756;21.140;2022-12-20T22:03:29;99738.48;;;3.11;72.23
64460;BME280;50828;53.756;21.140;2022-12-20T22:08:37;99731.17;;;3.12;72.30
64460;BME280;50828;53.756;21.140;2022-12-20T22:13:45;99724.23;;;3.10;72.03
64460;BME280;50828;53.756;21.140;2022-12-20T22:18:54;99729.40;;;3.14;72.24
64460;BME280;50828;53.756;21.140;2022-12-20T22:24:02;99728.32;;;3.16;72.32
64460;BME280;50828;53.756;21.140;2022-12-20T22:29:10;99722.91;;;3.18;72.30
64460;BME280;50828;53.756;21.140;2022-12-20T22:34:18;99707.04;;;3.19;71.92
64460;BME280;50828;53.756;21.140;2022-12-20T22:39:26;99702.54;;;3.18;72.21
64460;BME280;50828;53.756;21.140;2022-12-20T22:44:33;99698.16;;;3.20;72.13
64460;BME280;50828;53.756;21.140;2022-12-20T22:49:42;99695.23;;;3.18;72.09
64460;BME280;50828;53.756;21.140;2022-12-20T22:54:50;99696.77;;;3.21;72.03
64460;BME280;50828;53.756;21.140;2022-12-20T23:00:10;99686.67;;;3.19;72.17
64460;BME280;50828;53.756;21.140;2022-12-20T23:05:19;99684.55;;;3.21;71.94
64460;BME280;50828;53.756;21.140;2022-12-20T23:10:26;99682.11;;;3.23;72.17
64460;BME280;50828;53.756;21.140;2022-12-20T23:15:52;99670.83;;;3.21;72.02
64460;BME280;50828;53.756;21.140;2022-12-20T23:21:00;99670.77;;;3.24;71.78
64460;BME280;50828;53.756;21.140;2022-12-20T23:26:25;99664.48;;;3.25;71.78
64460;BME280;50828;53.756;21.140;2022-12-20T23:31:32;99649.21;;;3.23;71.87
64460;BME280;50828;53.756;21.140;2022-12-20T23:36:40;99642.02;;;3.25;71.73
64460;BME280;50828;53.756;21.140;2022-12-20T23:41:48;99627.58;;;3.25;71.78
64460;BME280;50828;53.756;21.140;2022-12-20T23:46:56;99621.85;;;3.25;71.91
64460;BME280;50828;53.756;21.140;2022-12-20T23:52:04;99612.98;;;3.25;71.94
64460;BME280;50828;53.756;21.140;2022-12-20T23:57:13;99608.10;;;3.25;71.63
